sensor_id;sensor_type;location;lat;lon;timestamp;P1;durP1;ratioP1;P2;durP2;ratioP2
76953;SDS011;65893;51.698;-0.292;2023-02-23T00:01:47;8.98;;;3.35;;
76953;SDS011;65893;51.698;-0.292;2023-02-23T00:04:13;13.93;;;6.40;;
76953;SDS011;65893;51.698;-0.292;2023-02-23T00:06:39;10.25;;;3.90;;
76953;SDS011;65893;51.698;-0.292;2023-02-23T00:09:05;13.30;;;6.57;;
76953;SDS011;65893;51.698;-0.292;2023-02-23T00:11:46;10.98;;;4.95;;
76953;SDS011;65893;51.698;-0.292;2023-02-23T00:14:13;6.63;;;3.15;;
76953;SDS011;65893;51.698;-0.292;2023-02-23T00:16:39;6.10;;;2.42;;
76953;SDS011;65893;51.698;-0.292;2023-02-23T00:19:09;7.07;;;3.55;;
76953;SDS011;65893;51.698;-0.292;2023-02-23T00:21:37;11.35;;;2.63;;
76953;SDS011;65893;51.698;-0.292;2023-02-23T00:24:08;8.05;;;2.78;;
76953;SDS011;65893;51.698;-0.292;2023-02-23T00:26:35;9.38;;;3.83;;
76953;SDS011;65893;51.698;-0.292;2023-02-23T00:29:08;8.52;;;4.32;;
76953;SDS011;65893;51.698;-0.292;2023-02-23T00:31:35;12.02;;;3.30;;
76953;SDS011;65893;51.698;-0.292;2023-02-23T00:34:02;7.63;;;2.53;;
76953;SDS011;65893;51.698;-0.292;2023-02-23T00:36:32;8.32;;;3.65;;
76953;SDS011;65893;51.698;-0.292;2023-02-23T00:39:00;9.07;;;3.08;;
76953;SDS011;65893;51.698;-0.292;2023-02-23T00:41:26;6.22;;;2.30;;
76953;SDS011;65893;51.698;-0.292;2023-02-23T00:43:53;3.85;;;1.90;;
76953;SDS011;65893;51.698;-0.292;2023-02-23T00:46:20;9.13;;;2.85;;
76953;SDS011;65893;51.698;-0.292;2023-02-23T00:48:47;5.30;;;1.73;;
76953;SDS011;65893;51.698;-0.292;2023-02-23T00:51:13;11.07;;;4.78;;
76953;SDS011;65893;51.698;-0.292;2023-02-23T00:53:41;7.00;;;2.80;;
76953;SDS011;65893;51.698;-0.292;2023-02-23T00:56:07;6.82;;;3.10;;
76953;SDS011;65893;51.698;-0.292;2023-02-23T00:58:34;8.07;;;2.78;;
76953;SDS011;65893;51.698;-0.292;2023-02-23T01:01:00;7.32;;;2.60;;
76953;SDS011;65893;51.698;-0.292;2023-02-23T01:03:26;4.68;;;1.80;;
76953;SDS011;65893;51.698;-0.292;2023-02-23T01:05:53;7.00;;;3.25;;
76953;SDS011;65893;51.698;-0.292;2023-02-23T01:08:20;11.35;;;3.85;;
76953;SDS011;65893;51.698;-0.292;2023-02-23T01:10:46;11.43;;;5.05;;
76953;SDS011;65893;51.698;-0.292;2023-02-23T01:13:18;10.68;;;4.47;;
76953;SDS011;65893;51.698;-0.292;2023-02-23T01:15:46;7.88;;;2.80;;
76953;SDS011;65893;51.698;-0.292;2023-02-23T01:18:16;11.00;;;5.22;;
76953;SDS011;65893;51.698;-0.292;2023-02-23T01:20:43;10.40;;;4.60;;
76953;SDS011;65893;51.698;-0.292;2023-02-23T01:23:12;13.85;;;4.97;;
76953;SDS011;65893;51.698;-0.292;2023-02-23T01:25:40;16.40;;;6.60;;
76953;SDS011;65893;51.698;-0.292;2023-02-23T01:28:07;17.88;;;6.35;;
76953;SDS011;65893;51.698;-0.292;2023-02-23T01:30:36;10.60;;;4.03;;
76953;SDS011;65893;51.698;-0.292;2023-02-23T01:33:02;11.85;;;4.22;;
76953;SDS011;65893;51.698;-0.292;2023-02-23T01:35:28;12.63;;;4.35;;
76953;SDS011;65893;51.698;-0.292;2023-02-23T01:37:54;12.15;;;4.50;;
76953;SDS011;65893;51.698;-0.292;2023-02-23T01:40:24;10.90;;;3.70;;
76953;SDS011;65893;51.698;-0.292;2023-02-23T01:42:57;12.38;;;4.13;;
76953;SDS011;65893;51.698;-0.292;2023-02-23T01:47:52;6.88;;;2.75;;
76953;SDS011;65893;51.698;-0.292;2023-02-23T01:50:19;9.15;;;2.95;;
76953;SDS011;65893;51.698;-0.292;2023-02-23T01:52:46;7.03;;;2.65;;
76953;SDS011;65893;51.698;-0.292;2023-02-23T01:55:14;13.25;;;3.40;;
76953;SDS011;65893;51.698;-0.292;2023-02-23T01:57:46;7.05;;;2.97;;
76953;SDS011;65893;51.698;-0.292;2023-02-23T02:00:13;6.40;;;1.75;;
76953;SDS011;65893;51.698;-0.292;2023-02-23T02:02:39;5.65;;;2.03;;
76953;SDS011;65893;51.698;-0.292;2023-02-23T02:05:06;5.82;;;1.80;;
76953;SDS011;65893;51.698;-0.292;2023-02-23T02:07:37;6.40;;;2.33;;
76953;SDS011;65893;51.698;-0.292;2023-02-23T02:10:04;6.85;;;1.67;;
76953;SDS011;65893;51.698;-0.292;2023-02-23T02:12:40;8.35;;;1.83;;
76953;SDS011;65893;51.698;-0.292;2023-02-23T02:15:11;9.48;;;3.90;;
76953;SDS011;65893;51.698;-0.292;2023-02-23T02:25:53;9.60;;;3.25;;
76953;SDS011;65893;51.698;-0.292;2023-02-23T02:28:40;8.85;;;3.17;;
76953;SDS011;65893;51.698;-0.292;2023-02-23T02:31:33;8.18;;;3.03;;
76953;SDS011;65893;51.698;-0.292;2023-02-23T02:42:15;9.63;;;2.42;;
76953;SDS011;65893;51.698;-0.292;2023-02-23T02:45:07;9.88;;;3.42;;
76953;SDS011;65893;51.698;-0.292;2023-02-23T02:47:46;7.60;;;2.40;;
76953;SDS011;65893;51.698;-0.292;2023-02-23T02:50:28;6.13;;;2.50;;
76953;SDS011;65893;51.698;-0.292;2023-02-23T02:53:01;3.83;;;1.60;;
76953;SDS011;65893;51.698;-0.292;2023-02-23T02:58:07;5.13;;;2.00;;
76953;SDS011;65893;51.698;-0.292;2023-02-23T03:00:41;3.00;;;1.58;;
76953;SDS011;65893;51.698;-0.292;2023-02-23T03:06:45;4.65;;;1.65;;
76953;SDS011;65893;51.698;-0.292;2023-02-23T03:09:35;6.57;;;2.53;;
76953;SDS011;65893;51.698;-0.292;2023-02-23T03:32:46;4.13;;;1.42;;
76953;SDS011;65893;51.698;-0.292;2023-02-23T03:35:42;8.02;;;3.15;;
76953;SDS011;65893;51.698;-0.292;2023-02-23T03:38:35;9.13;;;3.85;;
76953;SDS011;65893;51.698;-0.292;2023-02-23T03:41:21;10.77;;;2.83;;
76953;SDS011;65893;51.698;-0.292;2023-02-23T03:44:17;3.92;;;1.52;;
76953;SDS011;65893;51.698;-0.292;2023-02-23T03:49:54;11.13;;;2.95;;
76953;SDS011;65893;51.698;-0.292;2023-02-23T03:52:43;9.57;;;3.92;;
76953;SDS011;65893;51.698;-0.292;2023-02-23T03:55:33;10.15;;;3.67;;
76953;SDS011;65893;51.698;-0.292;2023-02-23T03:58:29;8.10;;;2.55;;
76953;SDS011;65893;51.698;-0.292;2023-02-23T04:01:15;7.22;;;2.10;;
76953;SDS011;65893;51.698;-0.292;2023-02-23T04:04:01;5.68;;;2.47;;
76953;SDS011;65893;51.698;-0.292;2023-02-23T04:06:47;7.10;;;2.35;;
76953;SDS011;65893;51.698;-0.292;2023-02-23T04:09:32;8.60;;;3.13;;
76953;SDS011;65893;51.698;-0.292;2023-02-23T04:12:23;6.03;;;2.05;;
76953;SDS011;65893;51.698;-0.292;2023-02-23T04:17:53;4.93;;;1.92;;
76953;SDS011;65893;51.698;-0.292;2023-02-23T04:20:24;6.75;;;3.08;;
76953;SDS011;65893;51.698;-0.292;2023-02-23T04:22:50;4.47;;;1.42;;
76953;SDS011;65893;51.698;-0.292;2023-02-23T04:25:16;5.60;;;1.63;;
76953;SDS011;65893;51.698;-0.292;2023-02-23T04:27:43;5.85;;;2.10;;
76953;SDS011;65893;51.698;-0.292;2023-02-23T04:30:09;7.15;;;2.53;;
76953;SDS011;65893;51.698;-0.292;2023-02-23T04:32:36;5.22;;;1.95;;
76953;SDS011;65893;51.698;-0.292;2023-02-23T04:35:03;10.35;;;3.13;;
76953;SDS011;65893;51.698;-0.292;2023-02-23T04:37:30;7.47;;;2.80;;
76953;SDS011;65893;51.698;-0.292;2023-02-23T04:39:56;7.47;;;2.88;;
76953;SDS011;65893;51.698;-0.292;2023-02-23T04:42:24;6.43;;;2.00;;
76953;SDS011;65893;51.698;-0.292;2023-02-23T04:44:51;8.07;;;2.67;;
76953;SDS011;65893;51.698;-0.292;2023-02-23T04:47:17;7.38;;;2.80;;
76953;SDS011;65893;51.698;-0.292;2023-02-23T04:49:43;8.35;;;2.33;;
76953;SDS011;65893;51.698;-0.292;2023-02-23T04:52:09;9.68;;;4.20;;
76953;SDS011;65893;51.698;-0.292;2023-02-23T04:54:39;4.70;;;2.33;;
76953;SDS011;65893;51.698;-0.292;2023-02-23T04:57:05;6.47;;;1.77;;
76953;SDS011;65893;51.698;-0.292;2023-02-23T04:59:33;9.50;;;2.92;;
76953;SDS011;65893;51.698;-0.292;2023-02-23T05:01:59;5.07;;;2.05;;
76953;SDS011;65893;51.698;-0.292;2023-02-23T05:04:25;7.05;;;2.50;;
76953;SDS011;65893;51.698;-0.292;2023-02-23T05:06:52;5.22;;;1.63;;
76953;SDS011;65893;51.698;-0.292;2023-02-23T05:09:18;3.30;;;1.25;;
76953;SDS011;65893;51.698;-0.292;2023-02-23T05:11:44;5.43;;;2.05;;
76953;SDS011;65893;51.698;-0.292;2023-02-23T05:14:10;4.78;;;1.95;;
76953;SDS011;65893;51.698;-0.292;2023-02-23T05:16:37;5.57;;;2.28;;
76953;SDS011;65893;51.698;-0.292;2023-02-23T05:19:05;3.60;;;1.00;;
76953;SDS011;65893;51.698;-0.292;2023-02-23T05:21:32;4.70;;;1.85;;
76953;SDS011;65893;51.698;-0.292;2023-02-23T05:23:58;8.05;;;2.53;;
76953;SDS011;65893;51.698;-0.292;2023-02-23T05:26:24;3.35;;;1.27;;
76953;SDS011;65893;51.698;-0.292;2023-02-23T05:28:50;6.18;;;2.13;;
76953;SDS011;65893;51.698;-0.292;2023-02-23T05:31:16;4.75;;;1.63;;
76953;SDS011;65893;51.698;-0.292;2023-02-23T05:33:42;4.65;;;1.65;;
76953;SDS011;65893;51.698;-0.292;2023-02-23T05:36:13;5.35;;;1.73;;
76953;SDS011;65893;51.698;-0.292;2023-02-23T05:38:46;4.95;;;1.73;;
76953;SDS011;65893;51.698;-0.292;2023-02-23T05:41:14;5.70;;;2.00;;
76953;SDS011;65893;51.698;-0.292;2023-02-23T05:43:43;5.53;;;1.25;;
76953;SDS011;65893;51.698;-0.292;2023-02-23T05:46:19;6.40;;;2.30;;
76953;SDS011;65893;51.698;-0.292;2023-02-23T05:51:14;3.90;;;1.42;;
76953;SDS011;65893;51.698;-0.292;2023-02-23T05:53:40;6.38;;;1.63;;
76953;SDS011;65893;51.698;-0.292;2023-02-23T05:56:09;4.53;;;1.67;;
76953;SDS011;65893;51.698;-0.292;2023-02-23T06:01:09;5.80;;;1.73;;
76953;SDS011;65893;51.698;-0.292;2023-02-23T06:03:39;4.10;;;1.20;;
76953;SDS011;65893;51.698;-0.292;2023-02-23T06:06:06;3.95;;;1.63;;
76953;SDS011;65893;51.698;-0.292;2023-02-23T06:08:32;4.25;;;1.27;;
76953;SDS011;65893;51.698;-0.292;2023-02-23T06:13:37;7.32;;;1.95;;
76953;SDS011;65893;51.698;-0.292;2023-02-23T06:16:05;2.25;;;0.73;;
76953;SDS011;65893;51.698;-0.292;2023-02-23T06:18:32;4.85;;;0.85;;
76953;SDS011;65893;51.698;-0.292;2023-02-23T06:21:03;2.83;;;0.50;;
76953;SDS011;65893;51.698;-0.292;2023-02-23T06:23:31;3.20;;;0.75;;
76953;SDS011;65893;51.698;-0.292;2023-02-23T06:25:57;3.42;;;0.75;;
76953;SDS011;65893;51.698;-0.292;2023-02-23T06:28:24;3.95;;;0.70;;
76953;SDS011;65893;51.698;-0.292;2023-02-23T06:30:51;1.60;;;0.43;;
76953;SDS011;65893;51.698;-0.292;2023-02-23T06:33:17;0.57;;;0.20;;
76953;SDS011;65893;51.698;-0.292;2023-02-23T06:35:47;10.75;;;0.98;;
76953;SDS011;65893;51.698;-0.292;2023-02-23T06:38:14;1.85;;;0.47;;
76953;SDS011;65893;51.698;-0.292;2023-02-23T06:40:43;2.40;;;0.57;;
76953;SDS011;65893;51.698;-0.292;2023-02-23T06:43:09;5.70;;;1.27;;
76953;SDS011;65893;51.698;-0.292;2023-02-23T06:45:35;2.20;;;0.77;;
76953;SDS011;65893;51.698;-0.292;2023-02-23T06:48:03;1.40;;;0.35;;
76953;SDS011;65893;51.698;-0.292;2023-02-23T06:50:41;0.13;;;0.10;;
76953;SDS011;65893;51.698;-0.292;2023-02-23T06:53:08;1.00;;;0.45;;
76953;SDS011;65893;51.698;-0.292;2023-02-23T06:55:41;2.65;;;0.90;;
76953;SDS011;65893;51.698;-0.292;2023-02-23T06:58:08;1.65;;;0.47;;
76953;SDS011;65893;51.698;-0.292;2023-02-23T07:00:40;1.90;;;0.75;;
76953;SDS011;65893;51.698;-0.292;2023-02-23T07:03:09;11.38;;;1.70;;
76953;SDS011;65893;51.698;-0.292;2023-02-23T07:05:47;5.25;;;1.02;;
76953;SDS011;65893;51.698;-0.292;2023-02-23T07:08:16;2.75;;;0.57;;
76953;SDS011;65893;51.698;-0.292;2023-02-23T07:10:49;3.45;;;0.60;;
76953;SDS011;65893;51.698;-0.292;2023-02-23T07:13:15;4.95;;;1.30;;
76953;SDS011;65893;51.698;-0.292;2023-02-23T07:15:44;3.08;;;0.50;;
76953;SDS011;65893;51.698;-0.292;2023-02-23T07:18:10;4.78;;;1.00;;
76953;SDS011;65893;51.698;-0.292;2023-02-23T07:20:36;6.10;;;0.98;;
76953;SDS011;65893;51.698;-0.292;2023-02-23T07:23:08;1.77;;;0.45;;
76953;SDS011;65893;51.698;-0.292;2023-02-23T07:25:35;3.53;;;0.88;;
76953;SDS011;65893;51.698;-0.292;2023-02-23T07:28:07;3.85;;;0.63;;
76953;SDS011;65893;51.698;-0.292;2023-02-23T07:30:45;2.58;;;0.73;;
76953;SDS011;65893;51.698;-0.292;2023-02-23T07:33:21;2.08;;;0.30;;
76953;SDS011;65893;51.698;-0.292;2023-02-23T07:35:50;3.63;;;0.75;;
76953;SDS011;65893;51.698;-0.292;2023-02-23T07:38:22;2.25;;;0.55;;
76953;SDS011;65893;51.698;-0.292;2023-02-23T07:40:49;5.75;;;1.10;;
76953;SDS011;65893;51.698;-0.292;2023-02-23T07:43:31;5.97;;;1.35;;
76953;SDS011;65893;51.698;-0.292;2023-02-23T07:46:00;0.82;;;0.40;;
76953;SDS011;65893;51.698;-0.292;2023-02-23T07:48:26;2.15;;;0.73;;
76953;SDS011;65893;51.698;-0.292;2023-02-23T07:50:52;4.78;;;0.70;;
76953;SDS011;65893;51.698;-0.292;2023-02-23T07:53:18;1.23;;;0.40;;
76953;SDS011;65893;51.698;-0.292;2023-02-23T07:55:54;0.82;;;0.40;;
76953;SDS011;65893;51.698;-0.292;2023-02-23T07:58:20;3.40;;;1.10;;
76953;SDS011;65893;51.698;-0.292;2023-02-23T08:00:46;2.13;;;0.70;;
76953;SDS011;65893;51.698;-0.292;2023-02-23T08:03:17;6.35;;;1.17;;
76953;SDS011;65893;51.698;-0.292;2023-02-23T08:05:43;3.85;;;0.75;;
76953;SDS011;65893;51.698;-0.292;2023-02-23T08:08:09;0.90;;;0.60;;
76953;SDS011;65893;51.698;-0.292;2023-02-23T08:10:36;3.53;;;1.08;;
76953;SDS011;65893;51.698;-0.292;2023-02-23T08:13:04;5.15;;;0.90;;
76953;SDS011;65893;51.698;-0.292;2023-02-23T08:15:31;1.67;;;0.80;;
76953;SDS011;65893;51.698;-0.292;2023-02-23T08:17:57;5.18;;;0.88;;
76953;SDS011;65893;51.698;-0.292;2023-02-23T08:20:31;1.63;;;0.75;;
76953;SDS011;65893;51.698;-0.292;2023-02-23T08:22:57;4.57;;;0.73;;
76953;SDS011;65893;51.698;-0.292;2023-02-23T08:25:31;2.05;;;0.60;;
76953;SDS011;65893;51.698;-0.292;2023-02-23T08:28:00;7.22;;;1.15;;
76953;SDS011;65893;51.698;-0.292;2023-02-23T08:30:28;11.43;;;1.63;;
76953;SDS011;65893;51.698;-0.292;2023-02-23T08:32:58;0.80;;;0.43;;
76953;SDS011;65893;51.698;-0.292;2023-02-23T08:35:30;5.15;;;0.77;;
76953;SDS011;65893;51.698;-0.292;2023-02-23T08:37:58;7.55;;;1.85;;
76953;SDS011;65893;51.698;-0.292;2023-02-23T08:40:25;12.05;;;0.93;;
76953;SDS011;65893;51.698;-0.292;2023-02-23T08:42:51;4.15;;;0.93;;
76953;SDS011;65893;51.698;-0.292;2023-02-23T08:45:17;6.60;;;0.98;;
76953;SDS011;65893;51.698;-0.292;2023-02-23T08:47:44;3.33;;;0.82;;
76953;SDS011;65893;51.698;-0.292;2023-02-23T08:50:11;6.20;;;1.20;;
76953;SDS011;65893;51.698;-0.292;2023-02-23T08:52:40;2.78;;;0.80;;
76953;SDS011;65893;51.698;-0.292;2023-02-23T08:55:06;1.58;;;0.43;;
76953;SDS011;65893;51.698;-0.292;2023-02-23T08:57:35;5.13;;;0.88;;
76953;SDS011;65893;51.698;-0.292;2023-02-23T09:00:04;7.10;;;1.10;;
76953;SDS011;65893;51.698;-0.292;2023-02-23T09:02:39;1.55;;;0.40;;
76953;SDS011;65893;51.698;-0.292;2023-02-23T09:05:06;8.32;;;1.38;;
76953;SDS011;65893;51.698;-0.292;2023-02-23T09:07:32;1.92;;;0.70;;
76953;SDS011;65893;51.698;-0.292;2023-02-23T09:09:58;11.82;;;1.38;;
76953;SDS011;65893;51.698;-0.292;2023-02-23T09:12:24;3.33;;;0.75;;
76953;SDS011;65893;51.698;-0.292;2023-02-23T09:14:50;2.25;;;0.77;;
76953;SDS011;65893;51.698;-0.292;2023-02-23T09:17:18;9.50;;;1.58;;
76953;SDS011;65893;51.698;-0.292;2023-02-23T09:19:44;8.30;;;1.05;;
76953;SDS011;65893;51.698;-0.292;2023-02-23T09:22:10;6.70;;;1.65;;
76953;SDS011;65893;51.698;-0.292;2023-02-23T09:24:36;5.05;;;0.98;;
76953;SDS011;65893;51.698;-0.292;2023-02-23T09:27:02;5.93;;;0.73;;
76953;SDS011;65893;51.698;-0.292;2023-02-23T09:29:28;4.10;;;0.82;;
76953;SDS011;65893;51.698;-0.292;2023-02-23T09:31:56;9.60;;;0.77;;
76953;SDS011;65893;51.698;-0.292;2023-02-23T09:34:22;2.97;;;0.70;;
76953;SDS011;65893;51.698;-0.292;2023-02-23T09:36:48;7.68;;;1.15;;
76953;SDS011;65893;51.698;-0.292;2023-02-23T09:39:16;6.18;;;0.73;;
76953;SDS011;65893;51.698;-0.292;2023-02-23T09:44:11;1.75;;;0.85;;
76953;SDS011;65893;51.698;-0.292;2023-02-23T09:49:43;8.45;;;1.05;;
76953;SDS011;65893;51.698;-0.292;2023-02-23T09:52:15;4.18;;;0.70;;
76953;SDS011;65893;51.698;-0.292;2023-02-23T09:54:41;4.38;;;0.70;;
76953;SDS011;65893;51.698;-0.292;2023-02-23T09:57:10;3.95;;;0.95;;
76953;SDS011;65893;51.698;-0.292;2023-02-23T09:59:38;5.30;;;0.90;;
76953;SDS011;65893;51.698;-0.292;2023-02-23T10:04:51;1.17;;;0.35;;
76953;SDS011;65893;51.698;-0.292;2023-02-23T10:21:11;4.90;;;1.08;;
76953;SDS011;65893;51.698;-0.292;2023-02-23T10:23:51;6.25;;;0.90;;
76953;SDS011;65893;51.698;-0.292;2023-02-23T10:26:23;3.72;;;0.60;;
76953;SDS011;65893;51.698;-0.292;2023-02-23T10:28:49;1.65;;;0.52;;
76953;SDS011;65893;51.698;-0.292;2023-02-23T10:31:33;5.10;;;0.93;;
76953;SDS011;65893;51.698;-0.292;2023-02-23T10:34:02;7.65;;;2.05;;
76953;SDS011;65893;51.698;-0.292;2023-02-23T10:38:56;2.40;;;0.75;;
76953;SDS011;65893;51.698;-0.292;2023-02-23T10:41:28;2.20;;;0.70;;
76953;SDS011;65893;51.698;-0.292;2023-02-23T10:46:23;3.35;;;0.85;;
76953;SDS011;65893;51.698;-0.292;2023-02-23T10:51:27;3.05;;;0.60;;
76953;SDS011;65893;51.698;-0.292;2023-02-23T10:53:55;7.68;;;1.33;;
76953;SDS011;65893;51.698;-0.292;2023-02-23T10:56:22;11.02;;;1.25;;
76953;SDS011;65893;51.698;-0.292;2023-02-23T10:58:52;2.28;;;0.52;;
76953;SDS011;65893;51.698;-0.292;2023-02-23T11:01:53;4.78;;;0.93;;
76953;SDS011;65893;51.698;-0.292;2023-02-23T11:04:15;6.00;;;1.05;;
76953;SDS011;65893;51.698;-0.292;2023-02-23T11:06:43;8.05;;;1.38;;
76953;SDS011;65893;51.698;-0.292;2023-02-23T11:09:28;4.40;;;0.80;;
76953;SDS011;65893;51.698;-0.292;2023-02-23T11:14:23;9.32;;;1.20;;
76953;SDS011;65893;51.698;-0.292;2023-02-23T11:16:56;3.17;;;0.93;;
76953;SDS011;65893;51.698;-0.292;2023-02-23T11:21:56;9.70;;;1.38;;
76953;SDS011;65893;51.698;-0.292;2023-02-23T11:24:26;8.05;;;1.23;;
76953;SDS011;65893;51.698;-0.292;2023-02-23T11:26:55;5.72;;;1.05;;
76953;SDS011;65893;51.698;-0.292;2023-02-23T11:29:34;5.65;;;0.98;;
76953;SDS011;65893;51.698;-0.292;2023-02-23T11:32:16;5.45;;;1.13;;
76953;SDS011;65893;51.698;-0.292;2023-02-23T11:34:46;5.13;;;1.20;;
76953;SDS011;65893;51.698;-0.292;2023-02-23T11:42:18;3.25;;;0.80;;
76953;SDS011;65893;51.698;-0.292;2023-02-23T11:44:50;6.72;;;1.30;;
76953;SDS011;65893;51.698;-0.292;2023-02-23T11:47:17;7.10;;;1.58;;
76953;SDS011;65893;51.698;-0.292;2023-02-23T11:49:44;9.10;;;1.50;;
76953;SDS011;65893;51.698;-0.292;2023-02-23T11:52:14;13.35;;;1.70;;
76953;SDS011;65893;51.698;-0.292;2023-02-23T11:54:48;2.92;;;0.63;;
76953;SDS011;65893;51.698;-0.292;2023-02-23T11:57:23;4.28;;;0.88;;
76953;SDS011;65893;51.698;-0.292;2023-02-23T11:59:51;6.93;;;1.35;;
76953;SDS011;65893;51.698;-0.292;2023-02-23T12:04:43;2.08;;;0.55;;
76953;SDS011;65893;51.698;-0.292;2023-02-23T12:09:51;8.43;;;1.20;;
76953;SDS011;65893;51.698;-0.292;2023-02-23T12:12:20;7.30;;;0.73;;
76953;SDS011;65893;51.698;-0.292;2023-02-23T12:14:48;5.25;;;0.73;;
76953;SDS011;65893;51.698;-0.292;2023-02-23T12:17:25;3.42;;;1.02;;
76953;SDS011;65893;51.698;-0.292;2023-02-23T12:22:37;7.53;;;0.90;;
76953;SDS011;65893;51.698;-0.292;2023-02-23T12:25:38;8.15;;;1.05;;
76953;SDS011;65893;51.698;-0.292;2023-02-23T12:28:11;2.65;;;0.55;;
76953;SDS011;65893;51.698;-0.292;2023-02-23T12:30:57;16.80;;;2.50;;
76953;SDS011;65893;51.698;-0.292;2023-02-23T12:41:47;13.77;;;1.15;;
76953;SDS011;65893;51.698;-0.292;2023-02-23T12:44:32;2.22;;;0.60;;
76953;SDS011;65893;51.698;-0.292;2023-02-23T12:47:00;5.10;;;0.90;;
76953;SDS011;65893;51.698;-0.292;2023-02-23T12:49:32;7.45;;;1.35;;
76953;SDS011;65893;51.698;-0.292;2023-02-23T12:54:42;6.15;;;1.15;;
76953;SDS011;65893;51.698;-0.292;2023-02-23T13:05:38;4.85;;;0.82;;
76953;SDS011;65893;51.698;-0.292;2023-02-23T13:08:28;9.25;;;1.52;;
76953;SDS011;65893;51.698;-0.292;2023-02-23T13:11:05;4.50;;;1.30;;
76953;SDS011;65893;51.698;-0.292;2023-02-23T13:18:54;6.57;;;1.42;;
76953;SDS011;65893;51.698;-0.292;2023-02-23T13:24:18;10.35;;;1.30;;
76953;SDS011;65893;51.698;-0.292;2023-02-23T13:29:34;1.58;;;0.50;;
76953;SDS011;65893;51.698;-0.292;2023-02-23T13:32:04;6.75;;;1.52;;
76953;SDS011;65893;51.698;-0.292;2023-02-23T13:34:35;7.85;;;1.88;;
76953;SDS011;65893;51.698;-0.292;2023-02-23T13:37:05;10.13;;;2.47;;
76953;SDS011;65893;51.698;-0.292;2023-02-23T13:47:41;13.13;;;1.95;;
76953;SDS011;65893;51.698;-0.292;2023-02-23T13:50:18;8.40;;;1.45;;
76953;SDS011;65893;51.698;-0.292;2023-02-23T13:52:53;16.95;;;2.92;;
76953;SDS011;65893;51.698;-0.292;2023-02-23T13:58:14;10.20;;;2.05;;
76953;SDS011;65893;51.698;-0.292;2023-02-23T14:06:50;10.40;;;2.22;;
76953;SDS011;65893;51.698;-0.292;2023-02-23T14:09:31;3.38;;;0.73;;
76953;SDS011;65893;51.698;-0.292;2023-02-23T14:19:41;12.82;;;3.20;;
76953;SDS011;65893;51.698;-0.292;2023-02-23T14:22:11;6.60;;;1.60;;
76953;SDS011;65893;51.698;-0.292;2023-02-23T14:27:43;7.43;;;1.27;;
76953;SDS011;65893;51.698;-0.292;2023-02-23T14:30:14;6.35;;;1.33;;
76953;SDS011;65893;51.698;-0.292;2023-02-23T14:32:46;8.40;;;1.27;;
76953;SDS011;65893;51.698;-0.292;2023-02-23T14:35:59;4.65;;;1.42;;
76953;SDS011;65893;51.698;-0.292;2023-02-23T14:38:16;7.78;;;1.00;;
76953;SDS011;65893;51.698;-0.292;2023-02-23T14:40:48;14.13;;;1.75;;
76953;SDS011;65893;51.698;-0.292;2023-02-23T14:46:00;9.23;;;1.20;;
76953;SDS011;65893;51.698;-0.292;2023-02-23T14:48:30;4.68;;;1.30;;
76953;SDS011;65893;51.698;-0.292;2023-02-23T14:51:10;2.20;;;0.80;;
76953;SDS011;65893;51.698;-0.292;2023-02-23T14:53:41;3.95;;;1.40;;
76953;SDS011;65893;51.698;-0.292;2023-02-23T14:56:18;16.13;;;2.28;;
76953;SDS011;65893;51.698;-0.292;2023-02-23T14:58:48;11.35;;;1.30;;
76953;SDS011;65893;51.698;-0.292;2023-02-23T15:01:30;3.70;;;0.82;;
76953;SDS011;65893;51.698;-0.292;2023-02-23T15:04:06;7.40;;;1.40;;
76953;SDS011;65893;51.698;-0.292;2023-02-23T15:06:32;8.85;;;1.83;;
76953;SDS011;65893;51.698;-0.292;2023-02-23T15:08:59;1.67;;;0.57;;
76953;SDS011;65893;51.698;-0.292;2023-02-23T15:11:26;6.95;;;1.00;;
76953;SDS011;65893;51.698;-0.292;2023-02-23T15:13:55;5.13;;;0.65;;
76953;SDS011;65893;51.698;-0.292;2023-02-23T15:16:32;10.18;;;2.50;;
76953;SDS011;65893;51.698;-0.292;2023-02-23T15:19:02;6.75;;;1.40;;
76953;SDS011;65893;51.698;-0.292;2023-02-23T15:21:28;7.85;;;1.58;;
76953;SDS011;65893;51.698;-0.292;2023-02-23T15:24:06;12.82;;;2.70;;
76953;SDS011;65893;51.698;-0.292;2023-02-23T15:26:37;11.32;;;2.38;;
76953;SDS011;65893;51.698;-0.292;2023-02-23T15:29:05;7.13;;;2.38;;
76953;SDS011;65893;51.698;-0.292;2023-02-23T15:31:31;15.65;;;2.15;;
76953;SDS011;65893;51.698;-0.292;2023-02-23T15:33:58;10.40;;;1.42;;
76953;SDS011;65893;51.698;-0.292;2023-02-23T15:38:51;11.77;;;1.95;;
76953;SDS011;65893;51.698;-0.292;2023-02-23T15:43:49;10.85;;;1.38;;
76953;SDS011;65893;51.698;-0.292;2023-02-23T15:46:20;9.75;;;1.75;;
76953;SDS011;65893;51.698;-0.292;2023-02-23T15:48:48;8.88;;;1.50;;
76953;SDS011;65893;51.698;-0.292;2023-02-23T15:51:19;7.63;;;1.67;;
76953;SDS011;65893;51.698;-0.292;2023-02-23T15:53:46;7.15;;;1.52;;
76953;SDS011;65893;51.698;-0.292;2023-02-23T15:56:15;5.10;;;0.75;;
76953;SDS011;65893;51.698;-0.292;2023-02-23T15:58:48;14.88;;;2.08;;
76953;SDS011;65893;51.698;-0.292;2023-02-23T16:01:22;9.93;;;1.65;;
76953;SDS011;65893;51.698;-0.292;2023-02-23T16:04:05;13.75;;;2.08;;
76953;SDS011;65893;51.698;-0.292;2023-02-23T16:06:33;8.88;;;1.60;;
76953;SDS011;65893;51.698;-0.292;2023-02-23T16:11:33;2.97;;;0.55;;
76953;SDS011;65893;51.698;-0.292;2023-02-23T16:14:00;10.07;;;1.77;;
76953;SDS011;65893;51.698;-0.292;2023-02-23T16:16:26;13.45;;;1.95;;
76953;SDS011;65893;51.698;-0.292;2023-02-23T16:18:53;7.40;;;1.10;;
76953;SDS011;65893;51.698;-0.292;2023-02-23T16:21:25;4.18;;;1.63;;
76953;SDS011;65893;51.698;-0.292;2023-02-23T16:23:55;7.30;;;0.93;;
76953;SDS011;65893;51.698;-0.292;2023-02-23T16:29:08;12.98;;;1.50;;
76953;SDS011;65893;51.698;-0.292;2023-02-23T16:32:20;3.45;;;0.85;;
76953;SDS011;65893;51.698;-0.292;2023-02-23T16:34:30;7.28;;;1.23;;
76953;SDS011;65893;51.698;-0.292;2023-02-23T16:36:59;5.38;;;1.00;;
76953;SDS011;65893;51.698;-0.292;2023-02-23T16:39:27;7.63;;;1.13;;
76953;SDS011;65893;51.698;-0.292;2023-02-23T16:41:54;12.73;;;1.90;;
76953;SDS011;65893;51.698;-0.292;2023-02-23T16:44:22;10.50;;;1.25;;
76953;SDS011;65893;51.698;-0.292;2023-02-23T16:49:19;4.63;;;0.98;;
76953;SDS011;65893;51.698;-0.292;2023-02-23T16:51:47;9.38;;;1.63;;
76953;SDS011;65893;51.698;-0.292;2023-02-23T16:54:13;7.95;;;1.17;;
76953;SDS011;65893;51.698;-0.292;2023-02-23T16:56:39;5.68;;;1.02;;
76953;SDS011;65893;51.698;-0.292;2023-02-23T16:59:05;5.63;;;0.77;;
76953;SDS011;65893;51.698;-0.292;2023-02-23T17:01:35;13.43;;;1.77;;
76953;SDS011;65893;51.698;-0.292;2023-02-23T17:04:01;7.03;;;1.30;;
76953;SDS011;65893;51.698;-0.292;2023-02-23T17:06:27;7.88;;;1.33;;
76953;SDS011;65893;51.698;-0.292;2023-02-23T17:08:54;5.05;;;0.68;;
76953;SDS011;65893;51.698;-0.292;2023-02-23T17:11:20;5.00;;;0.57;;
76953;SDS011;65893;51.698;-0.292;2023-02-23T17:13:46;9.57;;;2.28;;
76953;SDS011;65893;51.698;-0.292;2023-02-23T17:16:12;11.30;;;1.70;;
76953;SDS011;65893;51.698;-0.292;2023-02-23T17:18:38;13.98;;;1.55;;
76953;SDS011;65893;51.698;-0.292;2023-02-23T17:21:07;4.25;;;0.82;;
76953;SDS011;65893;51.698;-0.292;2023-02-23T17:23:48;11.02;;;1.95;;
76953;SDS011;65893;51.698;-0.292;2023-02-23T17:26:19;7.53;;;1.23;;
76953;SDS011;65893;51.698;-0.292;2023-02-23T17:28:45;5.15;;;0.70;;
76953;SDS011;65893;51.698;-0.292;2023-02-23T17:31:12;9.63;;;1.70;;
76953;SDS011;65893;51.698;-0.292;2023-02-23T17:33:39;6.25;;;1.67;;
76953;SDS011;65893;51.698;-0.292;2023-02-23T17:36:14;4.65;;;0.57;;
76953;SDS011;65893;51.698;-0.292;2023-02-23T17:38:40;10.05;;;1.40;;
76953;SDS011;65893;51.698;-0.292;2023-02-23T17:41:08;5.15;;;1.10;;
76953;SDS011;65893;51.698;-0.292;2023-02-23T17:43:35;3.97;;;0.57;;
76953;SDS011;65893;51.698;-0.292;2023-02-23T17:46:04;3.92;;;0.60;;
76953;SDS011;65893;51.698;-0.292;2023-02-23T17:48:30;18.25;;;2.00;;
76953;SDS011;65893;51.698;-0.292;2023-02-23T17:51:05;6.72;;;1.05;;
76953;SDS011;65893;51.698;-0.292;2023-02-23T17:53:33;3.95;;;0.70;;